createdAt,value
2023-02-23T00:00:37.251Z,23.13
2023-02-23T00:03:05.731Z,23.65
2023-02-23T00:05:38.201Z,22.50
2023-02-23T00:11:00.619Z,21.73
2023-02-23T00:13:29.251Z,26.70
2023-02-23T00:15:58.863Z,18.55
2023-02-23T00:18:30.144Z,22.80
2023-02-23T00:20:58.772Z,19.55
2023-02-23T00:23:27.426Z,26.20
2023-02-23T00:25:59.425Z,21.70
2023-02-23T00:28:27.706Z,21.73
2023-02-23T00:30:55.967Z,23.67
2023-02-23T00:33:25.670Z,24.73
2023-02-23T00:35:55.558Z,22.37
2023-02-23T00:38:23.801Z,19.70
2023-02-23T00:40:52.025Z,22.17
2023-02-23T00:43:23.858Z,21.10
2023-02-23T00:45:56.584Z,23.20
2023-02-23T00:48:28.728Z,26.13
2023-02-23T00:50:59.866Z,24.58
2023-02-23T00:53:28.082Z,21.65
2023-02-23T00:55:57.350Z,24.73
2023-02-23T00:58:25.984Z,22.38
2023-02-23T01:00:54.997Z,20.63
2023-02-23T01:03:23.259Z,24.90
2023-02-23T01:05:52.831Z,24.73
2023-02-23T01:08:20.999Z,22.90
2023-02-23T01:10:53.689Z,25.63
2023-02-23T01:13:22.091Z,21.50
2023-02-23T01:15:52.270Z,21.73
2023-02-23T01:18:21.787Z,20.17
2023-02-23T01:20:50.948Z,20.38
2023-02-23T01:23:21.218Z,21.02
2023-02-23T01:25:49.506Z,20.80
2023-02-23T01:28:17.802Z,30.10
2023-02-23T01:30:46.146Z,24.98
2023-02-23T01:33:16.499Z,18.15
2023-02-23T01:35:44.691Z,22.42
2023-02-23T01:38:13.712Z,24.98
2023-02-23T01:40:44.250Z,21.08
2023-02-23T01:43:14.444Z,22.73
2023-02-23T01:45:43.350Z,24.85
2023-02-23T01:48:14.148Z,23.10
2023-02-23T01:50:49.462Z,20.75
2023-02-23T01:53:18.409Z,24.10
2023-02-23T01:55:49.957Z,20.10
2023-02-23T01:58:19.948Z,21.40
2023-02-23T02:00:50.813Z,27.45
2023-02-23T02:03:26.583Z,20.50
2023-02-23T02:05:56.821Z,27.90
2023-02-23T02:08:26.756Z,19.15
2023-02-23T02:10:57.406Z,22.13
2023-02-23T02:16:25.109Z,20.88
2023-02-23T02:19:06.061Z,26.10
2023-02-23T02:21:54.155Z,25.73
2023-02-23T02:24:41.138Z,24.88
2023-02-23T02:27:19.721Z,25.70
2023-02-23T02:30:23.988Z,24.88
2023-02-23T02:33:19.156Z,26.70
2023-02-23T02:36:20.101Z,25.35
2023-02-23T02:38:55.010Z,25.17
2023-02-23T02:41:35.341Z,25.73
2023-02-23T02:44:07.921Z,23.40
2023-02-23T02:46:38.718Z,26.17
2023-02-23T02:49:11.635Z,24.38
2023-02-23T02:51:44.668Z,24.45
2023-02-23T02:54:21.385Z,31.55
2023-02-23T02:56:50.916Z,26.20
2023-02-23T02:59:38.309Z,25.30
2023-02-23T03:02:24.758Z,27.17
2023-02-23T03:05:10.595Z,23.85
2023-02-23T03:08:02.032Z,31.88
2023-02-23T03:10:55.328Z,28.98
2023-02-23T03:13:46.174Z,28.05
2023-02-23T03:16:40.613Z,30.63
2023-02-23T03:19:32.397Z,25.15
2023-02-23T03:22:24.870Z,27.00
2023-02-23T03:25:15.679Z,31.85
2023-02-23T03:30:56.235Z,28.23
2023-02-23T03:33:49.257Z,26.10
2023-02-23T03:36:38.702Z,27.42
2023-02-23T03:39:31.611Z,27.75
2023-02-23T03:42:19.138Z,29.83
2023-02-23T03:45:07.464Z,27.33
2023-02-23T03:47:56.381Z,26.15
2023-02-23T03:50:47.042Z,26.50
2023-02-23T03:53:34.794Z,26.67
2023-02-23T03:56:20.812Z,29.98
2023-02-23T03:59:09.849Z,26.80
2023-02-23T04:01:57.555Z,27.65
2023-02-23T04:04:44.594Z,24.67
2023-02-23T04:07:32.513Z,29.13
2023-02-23T04:10:18.470Z,29.33
2023-02-23T04:13:10.930Z,24.58
2023-02-23T04:15:39.734Z,30.15
2023-02-23T04:18:13.734Z,30.40
2023-02-23T04:20:42.005Z,29.08
2023-02-23T04:23:10.351Z,28.88
2023-02-23T04:25:38.574Z,33.63
2023-02-23T04:28:07.031Z,31.23
2023-02-23T04:30:35.477Z,31.30
2023-02-23T04:33:04.074Z,32.85
2023-02-23T04:35:33.720Z,32.47
2023-02-23T04:38:02.033Z,29.45
2023-02-23T04:40:30.836Z,31.70
2023-02-23T04:42:59.181Z,34.60
2023-02-23T04:45:28.525Z,29.02
2023-02-23T04:47:56.811Z,29.52
2023-02-23T04:50:25.112Z,28.20
2023-02-23T04:52:54.762Z,30.35
2023-02-23T04:55:24.280Z,32.03
2023-02-23T04:57:52.888Z,30.35
2023-02-23T05:00:21.378Z,31.60
2023-02-23T05:02:50.703Z,34.00
2023-02-23T05:05:19.748Z,33.97
2023-02-23T05:07:48.106Z,30.95
2023-02-23T05:10:17.968Z,34.65
2023-02-23T05:12:47.021Z,32.90
2023-02-23T05:15:15.410Z,31.50
2023-02-23T05:17:43.974Z,31.02
2023-02-23T05:20:13.926Z,27.23
2023-02-23T05:22:42.719Z,30.05
2023-02-23T05:25:11.988Z,30.35
2023-02-23T05:27:41.636Z,30.88
2023-02-23T05:30:11.192Z,29.10
2023-02-23T05:32:39.545Z,32.25
2023-02-23T05:35:09.054Z,31.83
2023-02-23T05:37:37.430Z,30.90
2023-02-23T05:40:06.648Z,27.88
2023-02-23T05:42:34.916Z,30.50
2023-02-23T05:45:05.052Z,30.83
2023-02-23T05:47:35.469Z,29.70
2023-02-23T05:50:03.758Z,32.45
2023-02-23T05:52:32.004Z,33.50
2023-02-23T05:55:00.331Z,30.17
2023-02-23T05:57:28.580Z,30.35
2023-02-23T05:59:56.814Z,32.17
2023-02-23T06:02:26.410Z,29.90
2023-02-23T06:04:55.915Z,33.28
2023-02-23T06:07:24.149Z,33.88
2023-02-23T06:09:52.438Z,32.63
2023-02-23T06:12:20.682Z,33.70
2023-02-23T06:14:50.725Z,37.05
2023-02-23T06:17:18.982Z,31.25
2023-02-23T06:19:48.922Z,32.03
2023-02-23T06:22:18.275Z,28.38
2023-02-23T06:24:46.494Z,30.92
2023-02-23T06:27:15.080Z,36.03
2023-02-23T06:29:43.318Z,30.08
2023-02-23T06:32:11.780Z,31.80
2023-02-23T06:34:40.509Z,30.70
2023-02-23T06:37:10.409Z,35.97
2023-02-23T06:39:38.668Z,30.30
2023-02-23T06:42:06.922Z,32.88
2023-02-23T06:44:35.874Z,34.88
2023-02-23T06:47:06.545Z,28.17
2023-02-23T06:52:02.825Z,30.55
2023-02-23T06:54:34.221Z,30.33
2023-02-23T06:57:02.534Z,29.45
2023-02-23T06:59:31.445Z,27.52
2023-02-23T07:01:59.690Z,27.90
2023-02-23T07:04:27.949Z,29.95
2023-02-23T07:06:56.158Z,28.42
2023-02-23T07:09:24.377Z,28.13
2023-02-23T07:11:53.987Z,29.05
2023-02-23T07:14:26.882Z,30.70
2023-02-23T07:16:55.776Z,31.15
2023-02-23T07:19:24.386Z,26.08
2023-02-23T07:21:53.536Z,27.52
2023-02-23T07:24:22.003Z,34.50
2023-02-23T07:26:50.298Z,27.15
2023-02-23T07:29:20.019Z,29.27
2023-02-23T07:31:50.152Z,28.63
2023-02-23T07:34:18.543Z,28.08
2023-02-23T07:36:46.839Z,30.58
2023-02-23T07:39:15.074Z,29.02
2023-02-23T07:41:43.296Z,30.52
2023-02-23T07:44:11.492Z,30.70
2023-02-23T07:46:41.856Z,32.72
2023-02-23T07:49:10.097Z,30.83
2023-02-23T07:51:38.332Z,32.60
2023-02-23T07:54:07.137Z,30.48
2023-02-23T07:56:35.644Z,28.77
2023-02-23T07:59:04.210Z,28.02
2023-02-23T08:01:32.497Z,27.80
2023-02-23T08:04:02.162Z,28.67
2023-02-23T08:06:31.491Z,30.17
2023-02-23T08:09:00.202Z,29.73
2023-02-23T08:11:29.612Z,27.02
2023-02-23T08:14:00.201Z,30.13
2023-02-23T08:18:58.311Z,23.30
2023-02-23T08:21:29.312Z,27.88
2023-02-23T08:23:58.133Z,25.58
2023-02-23T08:26:26.803Z,24.80
2023-02-23T08:28:55.524Z,28.27
2023-02-23T08:31:25.152Z,25.65
2023-02-23T08:33:54.148Z,27.10
2023-02-23T08:36:22.364Z,24.17
2023-02-23T08:38:51.996Z,30.95
2023-02-23T08:41:20.681Z,25.30
2023-02-23T08:43:49.787Z,26.67
2023-02-23T08:46:20.199Z,27.75
2023-02-23T08:48:48.439Z,27.90
2023-02-23T08:51:17.978Z,22.40
2023-02-23T08:53:46.443Z,26.13
2023-02-23T08:56:16.384Z,25.70
2023-02-23T08:58:44.657Z,23.77
2023-02-23T09:01:18.484Z,28.67
2023-02-23T09:03:47.090Z,25.75
2023-02-23T09:06:17.634Z,29.08
2023-02-23T09:08:45.905Z,25.92
2023-02-23T09:11:14.176Z,28.00
2023-02-23T09:13:44.545Z,24.00
2023-02-23T09:16:13.089Z,24.48
2023-02-23T09:18:41.933Z,27.75
2023-02-23T09:21:18.877Z,21.55
2023-02-23T09:23:49.752Z,27.40
2023-02-23T09:26:18.859Z,25.60
2023-02-23T09:28:48.752Z,28.20
2023-02-23T09:31:19.014Z,26.70
2023-02-23T09:33:47.644Z,27.17
2023-02-23T09:36:17.282Z,25.25
2023-02-23T09:38:46.136Z,23.13
2023-02-23T09:41:42.756Z,24.38
2023-02-23T09:44:17.793Z,20.02
2023-02-23T09:46:53.246Z,18.50
2023-02-23T09:49:24.436Z,21.25
2023-02-23T09:51:57.683Z,21.65
2023-02-23T09:54:29.564Z,20.13
2023-02-23T09:56:58.482Z,19.15
2023-02-23T09:59:28.814Z,23.40
2023-02-23T10:02:01.773Z,17.98
2023-02-23T10:04:32.306Z,20.40
2023-02-23T10:09:43.598Z,21.95
2023-02-23T10:15:00.703Z,17.52
2023-02-23T10:17:37.560Z,18.60
2023-02-23T10:20:15.358Z,20.98
2023-02-23T10:22:44.543Z,20.25
2023-02-23T10:25:14.785Z,17.48
2023-02-23T10:27:45.486Z,17.90
2023-02-23T10:30:24.172Z,17.15
2023-02-23T10:32:57.481Z,19.67
2023-02-23T10:35:27.629Z,19.90
2023-02-23T10:37:56.039Z,19.25
2023-02-23T10:40:27.688Z,15.63
2023-02-23T10:42:57.409Z,16.55
2023-02-23T10:45:29.046Z,15.95
2023-02-23T10:48:00.025Z,17.02
2023-02-23T10:50:28.988Z,16.70
2023-02-23T10:53:00.232Z,18.35
2023-02-23T10:55:30.474Z,18.13
2023-02-23T10:58:09.921Z,16.67
2023-02-23T11:00:41.607Z,16.55
2023-02-23T11:03:19.753Z,15.30
2023-02-23T11:05:53.017Z,16.13
2023-02-23T11:08:24.308Z,15.55
2023-02-23T11:11:09.013Z,16.30
2023-02-23T11:13:39.569Z,14.20
2023-02-23T11:18:41.094Z,16.05
2023-02-23T11:21:19.815Z,17.45
2023-02-23T11:23:51.404Z,13.85
2023-02-23T11:26:28.937Z,16.90
2023-02-23T11:28:59.453Z,14.57
2023-02-23T11:31:34.633Z,16.05
2023-02-23T11:34:05.434Z,14.32
2023-02-23T11:39:19.781Z,15.38
2023-02-23T11:41:48.035Z,16.15
2023-02-23T11:44:24.085Z,14.35
2023-02-23T11:46:53.866Z,14.43
2023-02-23T11:49:24.871Z,18.05
2023-02-23T11:51:54.446Z,12.63
2023-02-23T11:54:26.872Z,13.50
2023-02-23T11:56:57.935Z,14.90
2023-02-23T11:59:31.078Z,18.50
2023-02-23T12:02:06.983Z,15.05
2023-02-23T12:04:38.057Z,15.02
2023-02-23T12:07:27.348Z,15.63
2023-02-23T12:10:00.620Z,8.27
2023-02-23T12:12:29.948Z,12.90
2023-02-23T12:15:01.797Z,12.85
2023-02-23T12:17:36.924Z,15.40
2023-02-23T12:20:11.088Z,13.77
2023-02-23T12:22:41.617Z,11.85
2023-02-23T12:25:16.856Z,12.70
2023-02-23T12:27:50.621Z,12.30
2023-02-23T12:30:22.405Z,11.60
2023-02-23T12:32:57.879Z,14.30
2023-02-23T12:35:31.177Z,14.50
2023-02-23T12:38:02.309Z,10.98
2023-02-23T12:40:34.203Z,12.77
2023-02-23T12:43:06.616Z,11.02
2023-02-23T12:45:40.677Z,12.15
2023-02-23T12:48:16.185Z,11.07
2023-02-23T12:50:48.282Z,12.02
2023-02-23T12:53:21.658Z,10.85
2023-02-23T12:56:05.456Z,11.82
2023-02-23T12:58:41.223Z,11.40
2023-02-23T13:01:12.243Z,11.85
2023-02-23T13:03:59.263Z,11.35
2023-02-23T13:06:31.354Z,11.95
2023-02-23T13:09:06.030Z,12.90
2023-02-23T13:11:48.215Z,11.95
2023-02-23T13:14:21.983Z,13.70
2023-02-23T13:16:53.522Z,11.95
2023-02-23T13:19:26.041Z,10.40
2023-02-23T13:21:56.271Z,12.10
2023-02-23T13:24:27.347Z,8.00
2023-02-23T13:27:00.798Z,12.50
2023-02-23T13:29:35.604Z,9.57
2023-02-23T13:32:06.217Z,8.30
2023-02-23T13:34:37.638Z,10.18
2023-02-23T13:37:07.745Z,8.70
2023-02-23T13:39:47.732Z,6.88
2023-02-23T13:42:22.767Z,8.63
2023-02-23T13:44:54.616Z,8.43
2023-02-23T13:47:35.014Z,6.30
2023-02-23T13:50:09.039Z,5.50
2023-02-23T13:52:40.602Z,5.78
2023-02-23T13:55:49.846Z,5.65
2023-02-23T13:58:20.477Z,3.97
2023-02-23T14:00:54.939Z,3.65
2023-02-23T14:03:25.582Z,6.57
2023-02-23T14:05:58.638Z,4.90
2023-02-23T14:08:31.598Z,4.20
2023-02-23T14:10:59.986Z,6.78
2023-02-23T14:13:31.162Z,8.68
2023-02-23T14:16:17.592Z,9.00
2023-02-23T14:19:06.663Z,10.73
2023-02-23T14:21:38.620Z,9.00
2023-02-23T14:24:18.035Z,10.90
2023-02-23T14:27:03.458Z,7.28
2023-02-23T14:29:33.014Z,6.60
2023-02-23T14:32:29.087Z,7.10
2023-02-23T14:34:58.493Z,6.32
2023-02-23T14:37:32.303Z,8.55
2023-02-23T14:40:13.728Z,6.13
2023-02-23T14:42:42.747Z,6.70
2023-02-23T14:45:20.525Z,5.07
2023-02-23T14:47:49.649Z,5.88
2023-02-23T14:50:25.359Z,5.82
2023-02-23T14:52:56.815Z,5.40
2023-02-23T14:55:29.240Z,5.05
2023-02-23T14:57:58.414Z,5.00
2023-02-23T15:00:28.635Z,7.18
2023-02-23T15:05:29.006Z,6.60
2023-02-23T15:08:04.614Z,7.78
2023-02-23T15:10:35.006Z,7.07
2023-02-23T15:13:09.872Z,6.38
2023-02-23T15:15:45.534Z,5.40
2023-02-23T15:18:22.171Z,6.25
2023-02-23T15:20:50.652Z,5.80
2023-02-23T15:23:21.948Z,5.65
2023-02-23T15:25:51.389Z,6.65
2023-02-23T15:28:25.334Z,6.90
2023-02-23T15:30:54.680Z,7.07
2023-02-23T15:33:28.321Z,6.53
2023-02-23T15:35:58.274Z,7.63
2023-02-23T15:38:45.742Z,5.70
2023-02-23T15:41:19.270Z,8.13
2023-02-23T15:43:47.777Z,6.28
2023-02-23T15:46:23.942Z,6.57
2023-02-23T15:48:53.369Z,6.60
2023-02-23T15:51:26.099Z,7.32
2023-02-23T15:53:56.192Z,6.70
2023-02-23T15:56:26.643Z,6.18
2023-02-23T15:58:58.198Z,6.50
2023-02-23T16:01:27.914Z,6.47
2023-02-23T16:04:00.505Z,6.40
2023-02-23T16:06:34.286Z,7.60
2023-02-23T16:09:20.749Z,8.80
2023-02-23T16:11:54.084Z,7.13
2023-02-23T16:14:24.097Z,7.70
2023-02-23T16:17:09.938Z,5.78
2023-02-23T16:19:41.052Z,6.72
2023-02-23T16:22:21.181Z,8.20
2023-02-23T16:25:00.162Z,8.15
2023-02-23T16:27:29.801Z,7.38
2023-02-23T16:30:01.051Z,6.90
2023-02-23T16:32:38.041Z,6.65
2023-02-23T16:35:16.716Z,7.38
2023-02-23T16:37:54.800Z,7.43
2023-02-23T16:40:24.418Z,9.55
2023-02-23T16:42:54.040Z,8.63
2023-02-23T16:45:23.187Z,8.50
2023-02-23T16:47:52.854Z,9.23
2023-02-23T16:50:24.244Z,8.57
2023-02-23T16:52:54.286Z,9.35
2023-02-23T16:55:26.503Z,11.50
2023-02-23T16:57:56.782Z,8.25
2023-02-23T17:00:26.339Z,11.43
2023-02-23T17:02:55.581Z,11.75
2023-02-23T17:05:24.751Z,7.75
2023-02-23T17:07:53.194Z,10.77
2023-02-23T17:10:26.931Z,9.65
2023-02-23T17:13:02.562Z,10.30
2023-02-23T17:15:33.853Z,11.63
2023-02-23T17:18:02.085Z,10.70
2023-02-23T17:20:30.573Z,8.82
2023-02-23T17:22:59.938Z,10.48
2023-02-23T17:25:28.670Z,8.55
2023-02-23T17:28:00.683Z,9.52
2023-02-23T17:30:30.034Z,9.95
2023-02-23T17:32:59.450Z,14.10
2023-02-23T17:35:28.387Z,9.45
2023-02-23T17:37:56.628Z,12.98
2023-02-23T17:40:28.748Z,10.13
2023-02-23T17:43:00.512Z,9.38
2023-02-23T17:45:29.275Z,10.85
2023-02-23T17:47:57.994Z,11.50
2023-02-23T17:50:28.067Z,10.38
2023-02-23T17:52:56.417Z,11.68
2023-02-23T17:55:26.184Z,11.63
2023-02-23T17:57:54.900Z,10.60
2023-02-23T18:00:25.311Z,10.90
2023-02-23T18:02:53.630Z,13.05
2023-02-23T18:05:22.596Z,8.65
2023-02-23T18:07:50.821Z,10.10
2023-02-23T18:10:19.220Z,10.77
2023-02-23T18:12:47.442Z,9.60
2023-02-23T18:15:17.457Z,13.38
2023-02-23T18:17:47.199Z,12.02
2023-02-23T18:20:17.074Z,11.20
2023-02-23T18:22:45.839Z,11.48
2023-02-23T18:25:21.481Z,8.65
2023-02-23T18:27:53.958Z,11.63
2023-02-23T18:30:24.557Z,10.43
2023-02-23T18:32:57.160Z,12.00
2023-02-23T18:35:25.485Z,15.35
2023-02-23T18:37:53.825Z,11.77
2023-02-23T18:40:23.910Z,12.10
2023-02-23T18:42:52.260Z,13.07
2023-02-23T18:45:20.499Z,12.00
2023-02-23T18:47:48.859Z,11.02
2023-02-23T18:50:19.664Z,10.20
2023-02-23T18:52:48.927Z,10.68
2023-02-23T18:55:18.149Z,9.57
2023-02-23T18:57:47.974Z,12.18
2023-02-23T19:00:18.447Z,9.55
2023-02-23T19:05:16.467Z,10.68
2023-02-23T19:07:46.201Z,12.13
2023-02-23T19:10:16.382Z,12.55
2023-02-23T19:12:44.829Z,10.65
2023-02-23T19:15:13.399Z,14.23
2023-02-23T19:17:41.625Z,15.30
2023-02-23T19:20:14.133Z,14.38
2023-02-23T19:22:42.902Z,10.85
2023-02-23T19:25:14.546Z,12.32
2023-02-23T19:27:43.459Z,12.40
2023-02-23T19:30:14.430Z,10.63
2023-02-23T19:32:43.660Z,12.68
2023-02-23T19:35:15.139Z,13.88
2023-02-23T19:37:50.884Z,14.32
2023-02-23T19:40:22.852Z,13.98
2023-02-23T19:42:53.141Z,16.83
2023-02-23T19:45:22.382Z,11.70
2023-02-23T19:47:52.791Z,10.98
2023-02-23T19:50:21.531Z,11.95
2023-02-23T19:52:50.321Z,14.23
2023-02-23T19:55:21.107Z,11.98
2023-02-23T19:57:49.366Z,12.13
2023-02-23T20:00:18.415Z,13.63
2023-02-23T20:02:54.763Z,10.45
2023-02-23T20:05:25.586Z,12.15
2023-02-23T20:07:54.662Z,13.50
2023-02-23T20:10:25.862Z,11.82
2023-02-23T20:12:54.171Z,14.20
2023-02-23T20:15:22.788Z,14.60
2023-02-23T20:17:51.241Z,14.05
2023-02-23T20:20:21.600Z,11.98
2023-02-23T20:22:53.120Z,13.00
2023-02-23T20:25:22.789Z,12.05
2023-02-23T20:27:52.377Z,11.47
2023-02-23T20:30:21.290Z,14.05
2023-02-23T20:32:50.022Z,14.52
2023-02-23T20:35:19.585Z,12.63
2023-02-23T20:37:48.092Z,10.25
2023-02-23T20:40:18.659Z,12.18
2023-02-23T20:45:19.288Z,13.50
2023-02-23T20:47:47.592Z,16.35
2023-02-23T20:50:16.040Z,15.55
2023-02-23T20:52:45.932Z,17.60
2023-02-23T20:55:19.229Z,11.50
2023-02-23T20:57:48.587Z,11.60
2023-02-23T21:00:22.756Z,14.00
2023-02-23T21:02:55.292Z,12.30
2023-02-23T21:05:25.291Z,12.63
2023-02-23T21:07:58.720Z,11.52
2023-02-23T21:10:29.808Z,13.63
2023-02-23T21:12:58.141Z,15.05
2023-02-23T21:15:29.143Z,13.55
2023-02-23T21:17:58.296Z,16.55
2023-02-23T21:20:27.471Z,14.45
2023-02-23T21:22:56.191Z,13.55
2023-02-23T21:25:26.474Z,15.50
2023-02-23T21:27:55.136Z,14.32
2023-02-23T21:30:28.584Z,13.73
2023-02-23T21:32:59.571Z,12.95
2023-02-23T21:35:27.983Z,13.52
2023-02-23T21:37:56.863Z,13.23
2023-02-23T21:40:25.229Z,13.63
2023-02-23T21:42:53.628Z,13.90
2023-02-23T21:45:21.906Z,15.93
2023-02-23T21:47:50.442Z,19.20
2023-02-23T21:50:21.157Z,17.33
2023-02-23T21:52:51.158Z,14.02
2023-02-23T21:55:22.856Z,14.93
2023-02-23T21:57:51.834Z,13.15
2023-02-23T22:00:20.879Z,15.15
2023-02-23T22:02:49.302Z,14.43
2023-02-23T22:05:19.593Z,17.48
2023-02-23T22:07:53.392Z,12.90
2023-02-23T22:10:23.366Z,11.75
2023-02-23T22:12:55.924Z,15.45
2023-02-23T22:15:27.620Z,13.88
2023-02-23T22:17:56.736Z,12.80
2023-02-23T22:20:25.404Z,14.73
2023-02-23T22:22:55.007Z,14.20
2023-02-23T22:25:23.259Z,14.10
2023-02-23T22:27:51.518Z,11.48
2023-02-23T22:30:22.402Z,14.63
2023-02-23T22:32:51.066Z,14.40
2023-02-23T22:35:19.511Z,14.63
2023-02-23T22:37:48.023Z,14.43
2023-02-23T22:40:18.213Z,12.05
2023-02-23T22:42:49.081Z,13.75
2023-02-23T22:45:17.924Z,13.95
2023-02-23T22:47:46.163Z,11.95
2023-02-23T22:50:18.070Z,11.68
2023-02-23T22:52:47.593Z,12.57
2023-02-23T22:55:19.232Z,15.93
2023-02-23T22:57:47.649Z,13.77
2023-02-23T23:00:17.420Z,16.25
2023-02-23T23:02:45.669Z,13.20
2023-02-23T23:05:14.585Z,12.48
2023-02-23T23:07:46.329Z,13.45
2023-02-23T23:10:15.347Z,11.45
2023-02-23T23:12:44.961Z,12.50
2023-02-23T23:15:18.996Z,14.23
2023-02-23T23:17:49.192Z,12.32
2023-02-23T23:20:22.982Z,12.07
2023-02-23T23:22:51.289Z,13.07
2023-02-23T23:25:22.838Z,13.35
2023-02-23T23:27:53.608Z,13.98
2023-02-23T23:30:25.884Z,15.75
2023-02-23T23:32:54.486Z,13.88
2023-02-23T23:35:23.201Z,14.90
2023-02-23T23:37:52.021Z,15.85
2023-02-23T23:40:24.362Z,14.90
2023-02-23T23:42:55.420Z,12.82
2023-02-23T23:45:25.826Z,15.27
2023-02-23T23:47:54.123Z,13.63
2023-02-23T23:50:26.868Z,12.27
2023-02-23T23:52:55.504Z,13.40
2023-02-23T23:55:23.791Z,13.55
2023-02-23T23:57:52.185Z,14.02
